sensor_id;sensor_type;location;lat;lon;timestamp;pressure;altitude;pressure_sealevel;temperature;humidity
68994;BME280;56054;50.968;5.816;2024-02-26T00:02:30;98248.03;;;3.49;100.00
68994;BME280;56054;50.968;5.816;2024-02-26T00:05:37;98241.16;;;3.48;100.00
68994;BME280;56054;50.968;5.816;2024-02-26T00:08:45;98244.38;;;3.43;100.00
68994;BME280;56054;50.968;5.816;2024-02-26T00:11:52;98249.69;;;3.47;100.00
68994;BME280;56054;50.968;5.816;2024-02-26T00:14:59;98240.88;;;3.41;100.00
68994;BME280;56054;50.968;5.816;2024-02-26T00:18:06;98236.38;;;3.37;100.00
68994;BME280;56054;50.968;5.816;2024-02-26T00:21:13;98238.94;;;3.37;100.00
68994;BME280;56054;50.968;5.816;2024-02-26T00:24:21;98236.94;;;3.32;100.00
68994;BME280;56054;50.968;5.816;2024-02-26T00:27:28;98239.56;;;3.33;100.00
68994;BME280;56054;50.968;5.816;2024-02-26T00:30:36;98228.03;;;3.25;100.00
68994;BME280;56054;50.968;5.816;2024-02-26T00:33:43;98229.63;;;3.23;100.00
68994;BME280;56054;50.968;5.816;2024-02-26T00:36:53;98231.97;;;3.18;100.00
68994;BME280;56054;50.968;5.816;2024-02-26T00:40:00;98236.38;;;3.21;100.00
68994;BME280;56054;50.968;5.816;2024-02-26T00:43:07;98224.19;;;3.17;100.00
68994;BME280;56054;50.968;5.816;2024-02-26T00:46:14;98230.69;;;3.10;100.00
68994;BME280;56054;50.968;5.816;2024-02-26T00:49:21;98223.88;;;3.11;100.00
68994;BME280;56054;50.968;5.816;2024-02-26T00:52:28;98215.06;;;3.06;100.00
68994;BME280;56054;50.968;5.816;2024-02-26T00:55:35;98223.88;;;3.11;100.00
68994;BME280;56054;50.968;5.816;2024-02-26T00:58:42;98219.84;;;2.99;100.00
68994;BME280;56054;50.968;5.816;2024-02-26T01:01:49;98218.50;;;3.06;100.00
68994;BME280;56054;50.968;5.816;2024-02-26T01:04:56;98207.84;;;2.98;100.00
68994;BME280;56054;50.968;5.816;2024-02-26T01:08:04;98212.25;;;3.01;100.00
68994;BME280;56054;50.968;5.816;2024-02-26T01:11:11;98214.72;;;2.99;100.00
68994;BME280;56054;50.968;5.816;2024-02-26T01:14:18;98218.25;;;3.02;100.00
68994;BME280;56054;50.968;5.816;2024-02-26T01:17:25;98222.13;;;2.93;100.00
68994;BME280;56054;50.968;5.816;2024-02-26T01:20:32;98216.31;;;2.97;100.00
68994;BME280;56054;50.968;5.816;2024-02-26T01:23:39;98217.88;;;2.94;100.00
68994;BME280;56054;50.968;5.816;2024-02-26T01:26:46;98211.13;;;2.96;100.00
68994;BME280;56054;50.968;5.816;2024-02-26T01:29:53;98201.44;;;2.90;100.00
68994;BME280;56054;50.968;5.816;2024-02-26T01:33:00;98204.31;;;2.96;100.00
68994;BME280;56054;50.968;5.816;2024-02-26T01:36:07;98208.47;;;2.94;100.00
68994;BME280;56054;50.968;5.816;2024-02-26T01:39:14;98214.47;;;2.95;100.00
68994;BME280;56054;50.968;5.816;2024-02-26T01:42:21;98205.19;;;2.97;100.00
68994;BME280;56054;50.968;5.816;2024-02-26T01:45:28;98206.88;;;2.96;100.00
68994;BME280;56054;50.968;5.816;2024-02-26T01:48:35;98209.44;;;2.96;100.00
68994;BME280;56054;50.968;5.816;2024-02-26T01:51:43;98211.03;;;2.94;100.00
68994;BME280;56054;50.968;5.816;2024-02-26T01:54:51;98199.34;;;2.99;100.00
68994;BME280;56054;50.968;5.816;2024-02-26T01:57:58;98198.47;;;2.99;100.00
68994;BME280;56054;50.968;5.816;2024-02-26T02:01:05;98201.84;;;2.98;100.00
68994;BME280;56054;50.968;5.816;2024-02-26T02:04:12;98212.81;;;2.95;100.00
68994;BME280;56054;50.968;5.816;2024-02-26T02:07:21;98205.75;;;2.91;100.00
68994;BME280;56054;50.968;5.816;2024-02-26T02:10:28;98203.59;;;2.99;100.00
68994;BME280;56054;50.968;5.816;2024-02-26T02:13:35;98207.28;;;2.88;100.00
68994;BME280;56054;50.968;5.816;2024-02-26T02:16:42;98197.91;;;2.88;100.00
68994;BME280;56054;50.968;5.816;2024-02-26T02:19:49;98191.97;;;2.89;100.00
68994;BME280;56054;50.968;5.816;2024-02-26T02:22:56;98190.47;;;2.93;100.00
68994;BME280;56054;50.968;5.816;2024-02-26T02:26:03;98203.81;;;2.87;100.00
68994;BME280;56054;50.968;5.816;2024-02-26T02:29:11;98201.03;;;2.83;100.00
68994;BME280;56054;50.968;5.816;2024-02-26T02:32:19;98212.34;;;2.86;100.00
68994;BME280;56054;50.968;5.816;2024-02-26T02:35:26;98203.91;;;2.89;100.00
68994;BME280;56054;50.968;5.816;2024-02-26T02:38:33;98209.16;;;2.90;100.00
68994;BME280;56054;50.968;5.816;2024-02-26T02:41:40;98210.03;;;2.91;100.00
68994;BME280;56054;50.968;5.816;2024-02-26T02:44:47;98196.78;;;2.83;100.00
68994;BME280;56054;50.968;5.816;2024-02-26T02:47:54;98208.00;;;2.85;100.00
68994;BME280;56054;50.968;5.816;2024-02-26T02:51:01;98200.25;;;2.84;100.00
68994;BME280;56054;50.968;5.816;2024-02-26T02:54:08;98203.81;;;2.87;100.00
68994;BME280;56054;50.968;5.816;2024-02-26T02:57:15;98197.00;;;2.88;100.00
68994;BME280;56054;50.968;5.816;2024-02-26T03:00:22;98196.06;;;2.86;100.00
68994;BME280;56054;50.968;5.816;2024-02-26T03:03:29;98200.28;;;2.85;100.00
68994;BME280;56054;50.968;5.816;2024-02-26T03:06:36;98199.03;;;2.77;100.00
68994;BME280;56054;50.968;5.816;2024-02-26T03:09:43;98205.84;;;2.76;100.00
68994;BME280;56054;50.968;5.816;2024-02-26T03:12:50;98201.44;;;2.74;100.00
68994;BME280;56054;50.968;5.816;2024-02-26T03:15:57;98212.00;;;2.80;100.00
68994;BME280;56054;50.968;5.816;2024-02-26T03:19:04;98209.19;;;2.75;100.00
68994;BME280;56054;50.968;5.816;2024-02-26T03:22:11;98210.00;;;2.74;100.00
68994;BME280;56054;50.968;5.816;2024-02-26T03:25:18;98209.28;;;2.77;100.00
68994;BME280;56054;50.968;5.816;2024-02-26T03:28:25;98200.38;;;2.70;100.00
68994;BME280;56054;50.968;5.816;2024-02-26T03:31:39;98196.16;;;2.71;100.00
68994;BME280;56054;50.968;5.816;2024-02-26T03:34:46;98202.00;;;2.68;100.00
68994;BME280;56054;50.968;5.816;2024-02-26T03:37:53;98195.34;;;2.72;100.00
68994;BME280;56054;50.968;5.816;2024-02-26T03:41:00;98200.81;;;2.78;100.00
68994;BME280;56054;50.968;5.816;2024-02-26T03:44:07;98202.22;;;2.73;100.00
68994;BME280;56054;50.968;5.816;2024-02-26T03:47:16;98198.94;;;2.75;100.00
68994;BME280;56054;50.968;5.816;2024-02-26T03:50:23;98186.78;;;2.71;100.00
68994;BME280;56054;50.968;5.816;2024-02-26T03:53:30;98188.47;;;2.71;100.00
68994;BME280;56054;50.968;5.816;2024-02-26T03:56:38;98179.00;;;2.70;100.00
68994;BME280;56054;50.968;5.816;2024-02-26T03:59:45;98191.97;;;2.73;100.00
68994;BME280;56054;50.968;5.816;2024-02-26T04:02:53;98193.75;;;2.74;100.00
68994;BME280;56054;50.968;5.816;2024-02-26T04:06:00;98176.91;;;2.79;100.00
68994;BME280;56054;50.968;5.816;2024-02-26T04:09:07;98189.59;;;2.76;100.00
68994;BME280;56054;50.968;5.816;2024-02-26T04:12:14;98201.44;;;2.74;100.00
68994;BME280;56054;50.968;5.816;2024-02-26T04:15:21;98194.97;;;2.81;100.00
68994;BME280;56054;50.968;5.816;2024-02-26T04:18:28;98208.00;;;2.85;100.00
68994;BME280;56054;50.968;5.816;2024-02-26T04:21:35;98209.44;;;2.80;100.00
68994;BME280;56054;50.968;5.816;2024-02-26T04:24:42;98212.00;;;2.80;100.00
68994;BME280;56054;50.968;5.816;2024-02-26T04:27:49;98217.31;;;2.83;100.00
68994;BME280;56054;50.968;5.816;2024-02-26T04:30:56;98220.66;;;2.82;100.00
68994;BME280;56054;50.968;5.816;2024-02-26T04:34:03;98217.47;;;2.86;100.00
68994;BME280;56054;50.968;5.816;2024-02-26T04:37:17;98220.66;;;2.82;100.00
68994;BME280;56054;50.968;5.816;2024-02-26T04:40:25;98223.63;;;2.90;100.00
68994;BME280;56054;50.968;5.816;2024-02-26T04:43:31;98230.53;;;2.91;100.00
68994;BME280;56054;50.968;5.816;2024-02-26T04:46:38;98217.31;;;2.83;100.00
68994;BME280;56054;50.968;5.816;2024-02-26T04:49:45;98221.88;;;2.89;100.00
68994;BME280;56054;50.968;5.816;2024-02-26T04:52:52;98219.63;;;2.78;100.00
68994;BME280;56054;50.968;5.816;2024-02-26T04:55:59;98224.81;;;2.80;100.00
68994;BME280;56054;50.968;5.816;2024-02-26T04:59:06;98225.63;;;2.79;100.00
68994;BME280;56054;50.968;5.816;2024-02-26T05:02:14;98228.81;;;2.75;100.00
68994;BME280;56054;50.968;5.816;2024-02-26T05:05:20;98235.00;;;2.78;100.00
68994;BME280;56054;50.968;5.816;2024-02-26T05:08:27;98233.94;;;2.75;100.00
68994;BME280;56054;50.968;5.816;2024-02-26T05:11:34;98235.00;;;2.78;100.00
68994;BME280;56054;50.968;5.816;2024-02-26T05:14:41;98239.81;;;2.72;100.00
68994;BME280;56054;50.968;5.816;2024-02-26T05:17:48;98239.19;;;2.76;100.00
68994;BME280;56054;50.968;5.816;2024-02-26T05:20:55;98239.91;;;2.74;100.00
68994;BME280;56054;50.968;5.816;2024-02-26T05:24:02;98248.22;;;2.70;100.00
68994;BME280;56054;50.968;5.816;2024-02-26T05:27:10;98256.00;;;2.71;100.00
68994;BME280;56054;50.968;5.816;2024-02-26T05:30:16;98253.28;;;2.68;100.00
68994;BME280;56054;50.968;5.816;2024-02-26T05:33:23;98244.88;;;2.71;100.00
68994;BME280;56054;50.968;5.816;2024-02-26T05:36:30;98244.41;;;2.63;100.00
68994;BME280;56054;50.968;5.816;2024-02-26T05:39:37;98246.06;;;2.61;100.00
68994;BME280;56054;50.968;5.816;2024-02-26T05:42:44;98249.56;;;2.63;100.00
68994;BME280;56054;50.968;5.816;2024-02-26T05:45:51;98258.94;;;2.63;100.00
68994;BME280;56054;50.968;5.816;2024-02-26T05:48:58;98260.47;;;2.59;100.00
68994;BME280;56054;50.968;5.816;2024-02-26T05:52:05;98269.03;;;2.60;100.00
68994;BME280;56054;50.968;5.816;2024-02-26T05:55:12;98271.59;;;2.60;100.00
68994;BME280;56054;50.968;5.816;2024-02-26T05:58:19;98270.72;;;2.59;100.00
68994;BME280;56054;50.968;5.816;2024-02-26T06:01:26;98289.38;;;2.56;100.00
68994;BME280;56054;50.968;5.816;2024-02-26T06:04:33;98288.25;;;2.51;100.00
68994;BME280;56054;50.968;5.816;2024-02-26T06:07:40;98295.03;;;2.51;100.00
68994;BME280;56054;50.968;5.816;2024-02-26T06:10:47;98296.88;;;2.53;100.00
68994;BME280;56054;50.968;5.816;2024-02-26T06:13:54;98301.06;;;2.51;100.00
68994;BME280;56054;50.968;5.816;2024-02-26T06:17:01;98294.97;;;2.49;100.00
68994;BME280;56054;50.968;5.816;2024-02-26T06:20:08;98298.84;;;2.43;100.00
68994;BME280;56054;50.968;5.816;2024-02-26T06:23:15;98302.44;;;2.46;100.00
68994;BME280;56054;50.968;5.816;2024-02-26T06:26:22;98317.41;;;2.39;100.00
68994;BME280;56054;50.968;5.816;2024-02-26T06:29:29;98314.13;;;2.41;100.00
68994;BME280;56054;50.968;5.816;2024-02-26T06:32:37;98323.66;;;2.44;100.00
68994;BME280;56054;50.968;5.816;2024-02-26T06:35:45;98323.44;;;2.39;100.00
68994;BME280;56054;50.968;5.816;2024-02-26T06:38:51;98329.00;;;2.32;100.00
68994;BME280;56054;50.968;5.816;2024-02-26T06:41:58;98329.44;;;2.40;100.00
68994;BME280;56054;50.968;5.816;2024-02-26T06:45:05;98341.38;;;2.39;100.00
68994;BME280;56054;50.968;5.816;2024-02-26T06:48:12;98343.03;;;2.39;100.00
68994;BME280;56054;50.968;5.816;2024-02-26T06:51:19;98345.53;;;2.37;100.00
68994;BME280;56054;50.968;5.816;2024-02-26T06:54:26;98343.84;;;2.38;100.00
68994;BME280;56054;50.968;5.816;2024-02-26T06:57:33;98355.06;;;2.40;100.00
68994;BME280;56054;50.968;5.816;2024-02-26T07:00:40;98348.88;;;2.36;100.00
68994;BME280;56054;50.968;5.816;2024-02-26T07:03:47;98359.06;;;2.34;100.00
68994;BME280;56054;50.968;5.816;2024-02-26T07:06:54;98352.34;;;2.37;100.00
68994;BME280;56054;50.968;5.816;2024-02-26T07:10:01;98357.78;;;2.43;100.00
68994;BME280;56054;50.968;5.816;2024-02-26T07:13:08;98368.59;;;2.37;100.00
68994;BME280;56054;50.968;5.816;2024-02-26T07:16:15;98373.06;;;2.41;100.00
68994;BME280;56054;50.968;5.816;2024-02-26T07:19:22;98368.75;;;2.40;100.00
68994;BME280;56054;50.968;5.816;2024-02-26T07:22:29;98379.34;;;2.46;100.00
68994;BME280;56054;50.968;5.816;2024-02-26T07:25:36;98385.97;;;2.43;100.00
68994;BME280;56054;50.968;5.816;2024-02-26T07:28:43;98387.50;;;2.39;100.00
68994;BME280;56054;50.968;5.816;2024-02-26T07:31:50;98391.56;;;2.35;100.00
68994;BME280;56054;50.968;5.816;2024-02-26T07:34:57;98395.25;;;2.41;100.00
68994;BME280;56054;50.968;5.816;2024-02-26T07:38:04;98401.47;;;2.44;100.00
68994;BME280;56054;50.968;5.816;2024-02-26T07:41:11;98402.88;;;2.39;100.00
68994;BME280;56054;50.968;5.816;2024-02-26T07:44:18;98404.63;;;2.40;100.00
68994;BME280;56054;50.968;5.816;2024-02-26T07:47:25;98403.75;;;2.40;100.00
68994;BME280;56054;50.968;5.816;2024-02-26T07:50:32;98403.50;;;2.35;100.00
68994;BME280;56054;50.968;5.816;2024-02-26T07:53:40;98416.56;;;2.40;100.00
68994;BME280;56054;50.968;5.816;2024-02-26T07:56:47;98420.88;;;2.41;100.00
68994;BME280;56054;50.968;5.816;2024-02-26T07:59:54;98419.28;;;2.28;100.00
68994;BME280;56054;50.968;5.816;2024-02-26T08:03:02;98427.97;;;2.30;100.00
68994;BME280;56054;50.968;5.816;2024-02-26T08:06:08;98421.16;;;2.30;100.00
68994;BME280;56054;50.968;5.816;2024-02-26T08:09:16;98443.16;;;2.27;100.00
68994;BME280;56054;50.968;5.816;2024-02-26T08:12:23;98432.97;;;2.28;100.00
68994;BME280;56054;50.968;5.816;2024-02-26T08:15:34;98448.28;;;2.27;100.00
68994;BME280;56054;50.968;5.816;2024-02-26T08:18:41;98448.91;;;2.23;100.00
68994;BME280;56054;50.968;5.816;2024-02-26T08:21:48;98452.00;;;2.32;100.00
68994;BME280;56054;50.968;5.816;2024-02-26T08:24:55;98454.28;;;2.27;100.00
68994;BME280;56054;50.968;5.816;2024-02-26T08:28:02;98456.16;;;2.30;100.00
68994;BME280;56054;50.968;5.816;2024-02-26T08:31:10;98458.19;;;2.35;100.00
68994;BME280;56054;50.968;5.816;2024-02-26T08:34:16;98470.81;;;2.32;100.00
68994;BME280;56054;50.968;5.816;2024-02-26T08:37:23;98476.13;;;2.35;100.00
68994;BME280;56054;50.968;5.816;2024-02-26T08:40:31;98474.84;;;2.29;100.00
68994;BME280;56054;50.968;5.816;2024-02-26T08:43:38;98475.84;;;2.31;100.00
68994;BME280;56054;50.968;5.816;2024-02-26T08:46:45;98474.69;;;2.41;100.00
68994;BME280;56054;50.968;5.816;2024-02-26T08:49:52;98485.38;;;2.33;100.00
68994;BME280;56054;50.968;5.816;2024-02-26T08:52:59;98486.47;;;2.37;100.00
68994;BME280;56054;50.968;5.816;2024-02-26T08:56:06;98490.72;;;2.37;100.00
68994;BME280;56054;50.968;5.816;2024-02-26T08:59:13;98486.03;;;2.44;100.00
68994;BME280;56054;50.968;5.816;2024-02-26T09:02:20;98493.63;;;2.43;100.00
68994;BME280;56054;50.968;5.816;2024-02-26T09:05:27;98495.38;;;2.44;100.00
68994;BME280;56054;50.968;5.816;2024-02-26T09:08:34;98504.75;;;2.43;100.00
68994;BME280;56054;50.968;5.816;2024-02-26T09:11:41;98502.56;;;2.49;100.00
68994;BME280;56054;50.968;5.816;2024-02-26T09:14:48;98504.84;;;2.45;100.00
68994;BME280;56054;50.968;5.816;2024-02-26T09:17:55;98514.69;;;2.52;100.00
68994;BME280;56054;50.968;5.816;2024-02-26T09:21:05;98518.94;;;2.51;100.00
68994;BME280;56054;50.968;5.816;2024-02-26T09:24:12;98528.00;;;2.46;100.00
68994;BME280;56054;50.968;5.816;2024-02-26T09:27:19;98521.50;;;2.51;100.00
68994;BME280;56054;50.968;5.816;2024-02-26T09:30:26;98531.91;;;2.54;100.00
68994;BME280;56054;50.968;5.816;2024-02-26T09:33:33;98530.13;;;2.53;100.00
68994;BME280;56054;50.968;5.816;2024-02-26T09:36:40;98541.63;;;2.45;100.00
68994;BME280;56054;50.968;5.816;2024-02-26T09:39:47;98543.22;;;2.58;100.00
68994;BME280;56054;50.968;5.816;2024-02-26T09:42:59;98556.41;;;2.64;100.00
68994;BME280;56054;50.968;5.816;2024-02-26T09:46:06;98553.31;;;2.70;100.00
68994;BME280;56054;50.968;5.816;2024-02-26T09:49:15;98561.09;;;2.56;100.00
68994;BME280;56054;50.968;5.816;2024-02-26T09:52:23;98557.63;;;2.56;100.00
68994;BME280;56054;50.968;5.816;2024-02-26T09:55:31;98570.91;;;2.64;100.00
68994;BME280;56054;50.968;5.816;2024-02-26T09:58:39;98565.69;;;2.62;100.00
68994;BME280;56054;50.968;5.816;2024-02-26T10:01:48;98569.66;;;2.57;100.00
68994;BME280;56054;50.968;5.816;2024-02-26T10:04:56;98574.44;;;2.66;100.00
68994;BME280;56054;50.968;5.816;2024-02-26T10:08:04;98583.81;;;2.65;100.00
68994;BME280;56054;50.968;5.816;2024-02-26T10:11:13;98587.53;;;2.70;100.00
68994;BME280;56054;50.968;5.816;2024-02-26T10:14:21;98593.28;;;2.66;100.00
68994;BME280;56054;50.968;5.816;2024-02-26T10:17:28;98593.09;;;2.63;100.00
68994;BME280;56054;50.968;5.816;2024-02-26T10:20:35;98592.19;;;2.63;100.00
68994;BME280;56054;50.968;5.816;2024-02-26T10:23:42;98600.78;;;2.63;100.00
68994;BME280;56054;50.968;5.816;2024-02-26T10:26:49;98598.59;;;2.69;100.00
68994;BME280;56054;50.968;5.816;2024-02-26T10:29:57;98611.50;;;2.71;100.00
68994;BME280;56054;50.968;5.816;2024-02-26T10:33:04;98616.63;;;2.71;100.00
68994;BME280;56054;50.968;5.816;2024-02-26T10:36:20;98622.81;;;2.74;100.00
68994;BME280;56054;50.968;5.816;2024-02-26T10:39:27;98620.16;;;2.73;100.00
68994;BME280;56054;50.968;5.816;2024-02-26T10:42:34;98627.25;;;2.77;100.00
68994;BME280;56054;50.968;5.816;2024-02-26T10:45:43;98630.78;;;2.79;100.00
68994;BME280;56054;50.968;5.816;2024-02-26T10:48:51;98630.09;;;2.82;100.00
68994;BME280;56054;50.968;5.816;2024-02-26T10:51:58;98636.47;;;2.88;100.00
68994;BME280;56054;50.968;5.816;2024-02-26T10:55:05;98642.75;;;2.93;100.00
68994;BME280;56054;50.968;5.816;2024-02-26T10:58:13;98648.78;;;2.94;100.00
68994;BME280;56054;50.968;5.816;2024-02-26T11:01:22;98658.75;;;2.89;100.00
68994;BME280;56054;50.968;5.816;2024-02-26T11:04:29;98656.56;;;2.95;100.00
68994;BME280;56054;50.968;5.816;2024-02-26T11:07:36;98664.16;;;2.94;100.00
68994;BME280;56054;50.968;5.816;2024-02-26T11:10:43;98663.88;;;2.89;100.00
68994;BME280;56054;50.968;5.816;2024-02-26T11:13:53;98667.25;;;2.88;100.00
68994;BME280;56054;50.968;5.816;2024-02-26T11:17:00;98679.28;;;2.89;100.00
68994;BME280;56054;50.968;5.816;2024-02-26T11:20:10;98682.66;;;2.88;100.00
68994;BME280;56054;50.968;5.816;2024-02-26T11:23:17;98681.84;;;2.89;100.00
68994;BME280;56054;50.968;5.816;2024-02-26T11:26:26;98695.47;;;2.88;100.00
68994;BME280;56054;50.968;5.816;2024-02-26T11:29:44;98685.63;;;2.81;100.00
68994;BME280;56054;50.968;5.816;2024-02-26T11:32:54;98696.16;;;2.86;100.00
68994;BME280;56054;50.968;5.816;2024-02-26T11:36:11;98700.19;;;2.95;100.00
68994;BME280;56054;50.968;5.816;2024-02-26T11:39:18;98702.19;;;2.86;100.00
68994;BME280;56054;50.968;5.816;2024-02-26T11:42:26;98700.59;;;2.88;100.00
68994;BME280;56054;50.968;5.816;2024-02-26T11:48:46;98705.66;;;3.02;100.00
68994;BME280;56054;50.968;5.816;2024-02-26T11:51:57;98703.09;;;3.02;100.00
68994;BME280;56054;50.968;5.816;2024-02-26T11:55:06;98699.53;;;2.99;100.00
68994;BME280;56054;50.968;5.816;2024-02-26T11:58:13;98700.63;;;3.03;100.00
68994;BME280;56054;50.968;5.816;2024-02-26T12:01:43;98712.59;;;3.03;100.00
68994;BME280;56054;50.968;5.816;2024-02-26T12:04:50;98718.63;;;3.18;100.00
68994;BME280;56054;50.968;5.816;2024-02-26T12:08:04;98724.19;;;3.26;100.00
68994;BME280;56054;50.968;5.816;2024-02-26T12:11:14;98731.03;;;3.25;100.00
68994;BME280;56054;50.968;5.816;2024-02-26T12:14:25;98734.19;;;3.21;100.00
68994;BME280;56054;50.968;5.816;2024-02-26T12:17:32;98734.28;;;3.22;100.00
68994;BME280;56054;50.968;5.816;2024-02-26T12:20:39;98737.00;;;3.11;100.00
68994;BME280;56054;50.968;5.816;2024-02-26T12:23:46;98738.34;;;3.19;100.00
68994;BME280;56054;50.968;5.816;2024-02-26T12:26:53;98742.50;;;3.17;100.00
68994;BME280;56054;50.968;5.816;2024-02-26T12:30:02;98744.88;;;3.14;100.00
68994;BME280;56054;50.968;5.816;2024-02-26T12:33:09;98751.09;;;3.17;100.00
68994;BME280;56054;50.968;5.816;2024-02-26T12:36:16;98752.25;;;3.22;100.00
68994;BME280;56054;50.968;5.816;2024-02-26T12:39:23;98773.66;;;3.23;100.00
68994;BME280;56054;50.968;5.816;2024-02-26T12:42:32;98774.28;;;3.19;100.00
68994;BME280;56054;50.968;5.816;2024-02-26T12:45:43;98768.69;;;3.11;100.00
68994;BME280;56054;50.968;5.816;2024-02-26T12:48:49;98783.00;;;3.08;100.00
68994;BME280;56054;50.968;5.816;2024-02-26T12:51:57;98782.31;;;3.10;100.00
68994;BME280;56054;50.968;5.816;2024-02-26T12:55:05;98796.31;;;3.15;100.00
68994;BME280;56054;50.968;5.816;2024-02-26T12:58:12;98804.94;;;3.03;100.00
68994;BME280;56054;50.968;5.816;2024-02-26T13:01:23;98807.09;;;3.10;100.00
68994;BME280;56054;50.968;5.816;2024-02-26T13:04:31;98815.38;;;3.06;100.00
68994;BME280;56054;50.968;5.816;2024-02-26T13:07:43;98822.31;;;2.93;100.00
68994;BME280;56054;50.968;5.816;2024-02-26T13:10:50;98836.22;;;2.97;100.00
68994;BME280;56054;50.968;5.816;2024-02-26T13:13:57;98830.78;;;2.92;100.00
68994;BME280;56054;50.968;5.816;2024-02-26T13:17:04;98839.47;;;2.94;100.00
68994;BME280;56054;50.968;5.816;2024-02-26T13:20:12;98845.41;;;2.93;100.00
68994;BME280;56054;50.968;5.816;2024-02-26T13:23:19;98846.97;;;2.91;100.00
68994;BME280;56054;50.968;5.816;2024-02-26T13:26:26;98849.72;;;2.94;100.00
68994;BME280;56054;50.968;5.816;2024-02-26T13:29:33;98851.13;;;2.89;100.00
68994;BME280;56054;50.968;5.816;2024-02-26T13:32:40;98854.78;;;2.93;100.00
68994;BME280;56054;50.968;5.816;2024-02-26T13:35:47;98862.19;;;2.88;100.00
68994;BME280;56054;50.968;5.816;2024-02-26T13:38:56;98854.69;;;2.91;100.00
68994;BME280;56054;50.968;5.816;2024-02-26T13:42:03;98863.94;;;2.89;100.00
68994;BME280;56054;50.968;5.816;2024-02-26T13:45:10;98870.25;;;2.94;100.00
68994;BME280;56054;50.968;5.816;2024-02-26T13:48:17;98876.38;;;2.96;100.00
68994;BME280;56054;50.968;5.816;2024-02-26T13:51:24;98862.47;;;2.93;100.00
68994;BME280;56054;50.968;5.816;2024-02-26T13:54:31;98880.34;;;2.91;100.00
68994;BME280;56054;50.968;5.816;2024-02-26T13:57:38;98888.91;;;2.92;100.00
68994;BME280;56054;50.968;5.816;2024-02-26T14:00:45;98887.84;;;2.88;100.00
68994;BME280;56054;50.968;5.816;2024-02-26T14:03:52;98893.84;;;2.89;100.00
68994;BME280;56054;50.968;5.816;2024-02-26T14:06:59;98903.78;;;2.97;100.00
68994;BME280;56054;50.968;5.816;2024-02-26T14:10:07;98901.91;;;2.95;100.00
68994;BME280;56054;50.968;5.816;2024-02-26T14:13:14;98896.72;;;2.93;100.00
68994;BME280;56054;50.968;5.816;2024-02-26T14:16:21;98902.03;;;2.96;100.00
68994;BME280;56054;50.968;5.816;2024-02-26T14:19:28;98904.31;;;2.92;100.00
68994;BME280;56054;50.968;5.816;2024-02-26T14:22:36;98907.75;;;2.92;100.00
68994;BME280;56054;50.968;5.816;2024-02-26T14:25:42;98912.28;;;2.96;100.00
68994;BME280;56054;50.968;5.816;2024-02-26T14:28:49;98912.78;;;2.91;100.00
68994;BME280;56054;50.968;5.816;2024-02-26T14:31:56;98918.00;;;2.92;100.00
68994;BME280;56054;50.968;5.816;2024-02-26T14:35:07;98918.63;;;2.88;100.00
68994;BME280;56054;50.968;5.816;2024-02-26T14:38:14;98924.81;;;2.92;100.00
68994;BME280;56054;50.968;5.816;2024-02-26T14:41:21;98936.94;;;2.94;100.00
68994;BME280;56054;50.968;5.816;2024-02-26T14:44:36;98934.91;;;2.89;100.00
68994;BME280;56054;50.968;5.816;2024-02-26T14:47:42;98947.41;;;2.97;100.00
68994;BME280;56054;50.968;5.816;2024-02-26T14:50:49;98960.66;;;2.90;100.00
68994;BME280;56054;50.968;5.816;2024-02-26T14:53:56;98961.63;;;2.92;100.00
68994;BME280;56054;50.968;5.816;2024-02-26T14:57:04;98956.59;;;2.94;100.00
68994;BME280;56054;50.968;5.816;2024-02-26T15:00:10;98965.97;;;2.93;100.00
68994;BME280;56054;50.968;5.816;2024-02-26T15:03:17;98969.81;;;2.87;100.00
68994;BME280;56054;50.968;5.816;2024-02-26T15:06:25;98977.41;;;2.98;100.00
68994;BME280;56054;50.968;5.816;2024-02-26T15:09:31;98983.13;;;2.94;100.00
68994;BME280;56054;50.968;5.816;2024-02-26T15:12:38;98988.94;;;2.92;100.00
68994;BME280;56054;50.968;5.816;2024-02-26T15:15:45;98991.44;;;2.90;100.00
68994;BME280;56054;50.968;5.816;2024-02-26T15:18:52;98995.50;;;3.00;100.00
68994;BME280;56054;50.968;5.816;2024-02-26T15:21:59;98994.38;;;2.96;100.00
68994;BME280;56054;50.968;5.816;2024-02-26T15:25:07;98997.75;;;2.95;100.00
68994;BME280;56054;50.968;5.816;2024-02-26T15:28:14;99010.56;;;2.95;100.00
68994;BME280;56054;50.968;5.816;2024-02-26T15:31:21;99020.22;;;2.99;100.00
68994;BME280;56054;50.968;5.816;2024-02-26T15:34:28;99014.53;;;2.90;100.00
68994;BME280;56054;50.968;5.816;2024-02-26T15:37:35;99034.06;;;3.02;100.00
68994;BME280;56054;50.968;5.816;2024-02-26T15:40:42;99028.72;;;2.98;100.00
68994;BME280;56054;50.968;5.816;2024-02-26T15:43:49;99040.38;;;2.93;100.00
68994;BME280;56054;50.968;5.816;2024-02-26T15:46:56;99047.44;;;2.97;100.00
68994;BME280;56054;50.968;5.816;2024-02-26T15:50:04;99051.63;;;2.95;100.00
68994;BME280;56054;50.968;5.816;2024-02-26T15:53:11;99052.41;;;2.94;100.00
68994;BME280;56054;50.968;5.816;2024-02-26T15:56:25;99051.03;;;2.99;100.00
68994;BME280;56054;50.968;5.816;2024-02-26T15:59:32;99061.88;;;2.95;100.00
68994;BME280;56054;50.968;5.816;2024-02-26T16:02:39;99071.34;;;2.96;100.00
68994;BME280;56054;50.968;5.816;2024-02-26T16:05:46;99079.84;;;2.95;100.00
68994;BME280;56054;50.968;5.816;2024-02-26T16:08:53;99087.94;;;3.02;100.00
68994;BME280;56054;50.968;5.816;2024-02-26T16:12:09;99082.72;;;3.00;100.00
68994;BME280;56054;50.968;5.816;2024-02-26T16:15:18;99096.38;;;2.87;100.00
68994;BME280;56054;50.968;5.816;2024-02-26T16:18:26;99093.75;;;2.99;100.00
68994;BME280;56054;50.968;5.816;2024-02-26T16:21:32;99101.75;;;2.90;100.00
68994;BME280;56054;50.968;5.816;2024-02-26T16:24:39;99117.53;;;2.96;100.00
68994;BME280;56054;50.968;5.816;2024-02-26T16:27:46;99120.88;;;2.95;100.00
68994;BME280;56054;50.968;5.816;2024-02-26T16:30:54;99124.03;;;2.91;100.00
68994;BME280;56054;50.968;5.816;2024-02-26T16:34:00;99137.84;;;2.93;100.00
68994;BME280;56054;50.968;5.816;2024-02-26T16:37:11;99134.66;;;2.84;100.00